Time;durP1;ratioP1;P1;durP2;ratioP2;P2;SDS_P1;SDS_P2;PMS_P1;PMS_P2;Temp;Humidity;BMP_temperature;BMP_pressure;BME280_temperature;BME280_humidity;BME280_pressure;Samples;Min_cycle;Max_cycle;Signal;HPM_P1;HPM_P2
2022/06/15 00:02:16;;;;;;;6.00;3.10;;;;;;;35.62;18.52;94053.00;5045802;28;20206;-68
2022/06/15 00:05:00;;;;;;;4.47;3.10;;;;;;;35.42;19.02;94059.31;5060210;28;20232;-68
2022/06/15 00:07:44;;;;;;;9.00;3.10;;;;;;;35.09;19.52;94052.66;5061309;28;20291;-69
2022/06/15 00:10:28;;;;;;;8.53;3.33;;;;;;;35.97;18.86;94046.44;5053081;28;20279;-69
2022/06/15 00:13:12;;;;;;;6.37;3.50;;;;;;;36.06;18.49;94044.75;5058625;28;20255;-69
2022/06/15 00:15:56;;;;;;;8.73;3.23;;;;;;;35.83;18.73;94043.84;5054359;28;20584;-69
2022/06/15 00:18:41;;;;;;;3.93;2.70;;;;;;;35.21;19.37;94037.88;5054386;28;20201;-70
2022/06/15 00:21:26;;;;;;;8.53;3.07;;;;;;;35.72;18.98;94036.81;5057579;28;20201;-70
2022/06/15 00:24:11;;;;;;;3.33;2.57;;;;;;;35.84;18.95;94036.53;5056177;28;20201;-69
2022/06/15 00:26:56;;;;;;;5.77;3.00;;;;;;;35.96;18.85;94033.31;5058187;28;20221;-69
2022/06/15 00:29:40;;;;;;;8.83;3.63;;;;;;;36.03;18.56;94032.41;5046606;28;20244;-69
2022/06/15 00:32:24;;;;;;;6.13;3.10;;;;;;;35.87;18.55;94032.78;5056636;28;20236;-68
2022/06/15 00:35:08;;;;;;;7.07;3.07;;;;;;;35.61;18.97;94033.38;5053503;28;20259;-69
2022/06/15 00:37:52;;;;;;;7.07;3.33;;;;;;;35.74;18.96;94030.94;5055416;28;20251;-68
2022/06/15 00:40:36;;;;;;;6.17;3.77;;;;;;;35.89;19.09;94032.03;5060497;28;20213;-68
2022/06/15 00:43:50;;;;;;;5.10;3.27;;;;;;;35.75;19.20;94030.16;5050450;28;20208;-68
2022/06/15 00:46:40;;;;;;;5.03;3.40;;;;;;;35.88;18.90;94030.59;5047370;28;20221;-68
2022/06/15 00:49:47;;;;;;;3.83;3.30;;;;;;;35.54;19.14;94032.81;5055685;28;20213;-68
2022/06/15 00:52:47;;;;;;;3.93;3.27;;;;;;;35.37;19.36;94025.88;5049582;28;20277;-68
2022/06/15 00:55:32;;;;;;;5.73;3.93;;;;;;;34.69;20.07;94017.00;5056781;28;20740;-68
2022/06/15 00:58:17;;;;;;;4.63;3.53;;;;;;;34.78;20.00;94032.88;5052886;28;20188;-68
2022/06/15 01:01:01;;;;;;;6.70;3.67;;;;;;;35.25;19.59;94029.03;5043999;28;20363;-68
2022/06/15 01:03:49;;;;;;;6.93;3.47;;;;;;;35.08;19.88;94030.84;5046358;28;20293;-68
2022/06/15 01:06:51;;;;;;;6.27;4.33;;;;;;;35.41;19.42;94019.25;5056389;28;20214;-69
2022/06/15 01:09:54;;;;;;;7.33;4.23;;;;;;;34.83;20.15;94028.41;5051534;28;20217;-68
2022/06/15 01:12:53;;;;;;;8.73;4.67;;;;;;;35.19;19.41;94023.31;5054315;28;20219;-68
2022/06/15 01:15:47;;;;;;;5.90;3.80;;;;;;;35.04;19.76;94025.09;5056742;28;20201;-69
2022/06/15 01:18:40;;;;;;;5.07;3.90;;;;;;;34.95;19.55;94027.44;5048142;28;20248;-69
2022/06/15 01:21:33;;;;;;;7.53;3.97;;;;;;;34.71;19.92;94007.53;5060691;28;20581;-69
2022/06/15 01:24:35;;;;;;;5.33;4.10;;;;;;;34.56;20.05;94015.09;5057683;28;20291;-68
2022/06/15 01:27:19;;;;;;;6.80;4.73;;;;;;;34.39;20.23;94014.66;5051687;28;20275;-69
2022/06/15 01:30:16;;;;;;;12.57;5.20;;;;;;;34.30;20.17;94004.63;5040310;28;20206;-68
2022/06/15 01:33:12;;;;;;;8.60;5.23;;;;;;;34.12;20.44;94011.47;5054234;28;20196;-69
2022/06/15 01:36:23;;;;;;;14.60;4.93;;;;;;;34.05;20.37;94002.13;5056361;28;20205;-69
2022/06/15 01:39:18;;;;;;;9.23;5.20;;;;;;;34.11;20.45;94004.94;5050451;28;20200;-68
2022/06/15 01:42:14;;;;;;;11.43;5.47;;;;;;;33.94;20.21;94003.03;5054473;28;20205;-68
2022/06/15 01:45:04;;;;;;;8.63;5.43;;;;;;;33.63;20.89;94012.22;5049440;28;20205;-69
2022/06/15 01:47:52;;;;;;;9.60;6.30;;;;;;;33.55;20.97;94009.41;5051642;28;20283;-68
2022/06/15 01:50:45;;;;;;;9.07;6.10;;;;;;;33.45;21.02;94011.75;5045618;28;20221;-68
2022/06/15 01:53:34;;;;;;;9.20;5.67;;;;;;;33.35;21.12;94011.88;5049625;28;20240;-69
2022/06/15 01:56:23;;;;;;;8.00;6.03;;;;;;;33.33;21.04;94010.44;5053415;28;20281;-68
2022/06/15 01:59:18;;;;;;;9.73;5.93;;;;;;;33.16;21.33;94015.00;5052542;28;20678;-68
2022/06/15 02:02:14;;;;;;;11.97;6.50;;;;;;;33.20;20.90;94015.00;5054217;28;20201;-69
2022/06/15 02:05:07;;;;;;;13.00;6.70;;;;;;;33.15;21.06;94013.56;5051719;28;20259;-68
2022/06/15 02:08:09;;;;;;;10.27;7.33;;;;;;;33.20;21.11;94009.19;5062825;28;20225;-68
2022/06/15 02:11:02;;;;;;;9.27;7.20;;;;;;;33.08;21.19;94009.31;5044039;28;20229;-68
2022/06/15 02:13:57;;;;;;;8.13;7.33;;;;;;;32.85;21.34;94002.31;5051212;28;20252;-69
2022/06/15 02:16:49;;;;;;;12.23;7.40;;;;;;;32.58;21.70;94001.19;5053206;28;20197;-68
2022/06/15 02:19:47;;;;;;;10.67;6.30;;;;;;;32.59;21.21;93997.50;5053972;28;20189;-69
2022/06/15 02:22:40;;;;;;;11.20;8.07;;;;;;;32.39;21.38;94004.28;5050362;28;20241;-69
2022/06/15 02:25:30;;;;;;;10.90;7.60;;;;;;;32.36;21.80;93994.13;5052984;28;20642;-68
2022/06/15 02:28:16;;;;;;;9.57;7.53;;;;;;;32.33;21.78;93992.72;5050591;28;20786;-69
2022/06/15 02:31:03;;;;;;;10.30;7.47;;;;;;;32.38;21.62;93997.03;5056685;28;20271;-68
2022/06/15 02:33:53;;;;;;;8.40;6.53;;;;;;;32.34;21.49;93991.25;5053080;28;20201;-69
2022/06/15 02:36:38;;;;;;;10.23;7.27;;;;;;;32.36;21.70;93988.34;5057360;28;20190;-68
2022/06/15 02:39:23;;;;;;;8.10;6.47;;;;;;;32.34;21.70;93991.25;5053918;28;20221;-69
2022/06/15 02:42:32;;;;;;;13.73;8.43;;;;;;;32.34;21.61;93988.34;5049397;28;20201;-69
2022/06/15 02:45:28;;;;;;;16.73;8.50;;;;;;;32.35;21.56;93989.78;5050347;28;20573;-69
2022/06/15 02:48:16;;;;;;;13.03;8.33;;;;;;;32.39;21.80;93978.16;5047440;28;20221;-69
2022/06/15 02:51:14;;;;;;;14.93;8.50;;;;;;;32.41;21.80;93983.94;5049520;28;20205;-69
2022/06/15 02:54:12;;;;;;;11.43;8.13;;;;;;;32.25;21.74;93983.38;5050978;28;20196;-68
2022/06/15 02:56:57;;;;;;;10.40;7.40;;;;;;;32.11;21.60;93969.69;5044729;28;20200;-69
2022/06/15 02:59:42;;;;;;;13.70;8.43;;;;;;;32.17;21.95;93978.38;5059678;28;20210;-69
2022/06/15 03:02:29;;;;;;;14.33;8.53;;;;;;;32.17;21.91;93972.56;5059512;28;20324;-69
2022/06/15 03:05:14;;;;;;;13.93;8.77;;;;;;;32.10;21.60;93971.88;5050976;28;20283;-68
2022/06/15 03:07:58;;;;;;;11.37;8.93;;;;;;;31.96;22.11;93968.41;5060906;28;20259;-69
2022/06/15 03:10:43;;;;;;;10.47;8.43;;;;;;;31.96;22.04;93974.22;5055530;28;20201;-69
2022/06/15 03:13:27;;;;;;;11.73;8.83;;;;;;;32.09;22.09;93978.44;5062644;28;20574;-69
2022/06/15 03:16:15;;;;;;;13.83;8.47;;;;;;;31.99;21.88;93981.41;5059834;28;20292;-68
2022/06/15 03:19:01;;;;;;;12.43;9.10;;;;;;;32.04;22.05;93988.63;5064801;28;20236;-68
2022/06/15 03:21:46;;;;;;;11.93;8.97;;;;;;;32.28;22.02;93994.22;5053310;28;20228;-69
2022/06/15 03:24:30;;;;;;;14.53;9.83;;;;;;;32.28;22.05;93982.59;5055984;28;20201;-69
2022/06/15 03:27:17;;;;;;;14.70;10.53;;;;;;;32.36;22.03;93994.13;5061630;28;20250;-68
2022/06/15 03:30:06;;;;;;;17.17;10.70;;;;;;;32.43;22.49;93975.22;5056058;28;20306;-69
2022/06/15 03:32:57;;;;;;;14.27;10.33;;;;;;;32.76;22.04;93974.88;5062633;28;20208;-68
2022/06/15 03:35:42;;;;;;;17.70;10.53;;;;;;;32.70;21.81;93977.84;5061337;28;20289;-67
2022/06/15 03:38:32;;;;;;;15.83;10.90;;;;;;;32.90;22.17;93980.47;5055795;28;20706;-68
2022/06/15 03:41:36;;;;;;;21.10;11.63;;;;;;;32.99;22.03;93978.94;5055077;28;20688;-69
2022/06/15 03:44:21;;;;;;;13.53;9.17;;;;;;;32.98;21.96;93980.38;5041561;28;20197;-69
2022/06/15 03:47:09;;;;;;;17.97;9.50;;;;;;;32.73;21.95;93974.16;5043969;28;20224;-68
2022/06/15 03:49:56;;;;;;;19.77;10.20;;;;;;;32.99;22.05;93981.13;5058335;28;20202;-68
2022/06/15 03:52:40;;;;;;;14.10;8.97;;;;;;;32.99;21.91;93981.84;5051787;28;20205;-68
2022/06/15 03:55:25;;;;;;;13.33;8.57;;;;;;;33.05;21.93;93978.13;5056576;28;20713;-68
2022/06/15 03:58:17;;;;;;;12.80;8.23;;;;;;;33.17;22.28;93987.41;5053031;28;20202;-68
2022/06/15 04:01:03;;;;;;;9.23;7.57;;;;;;;33.48;21.79;93984.81;5048992;28;20893;-68
2022/06/15 04:03:50;;;;;;;11.83;8.23;;;;;;;33.48;21.87;93984.81;5056794;28;20611;-68
2022/06/15 04:06:41;;;;;;;9.90;8.03;;;;;;;34.09;21.53;93987.50;5056100;28;20221;-68
2022/06/15 04:09:26;;;;;;;10.23;7.53;;;;;;;33.95;22.02;93981.91;5057821;28;20256;-68
2022/06/15 04:12:24;;;;;;;13.43;9.30;;;;;;;34.15;21.62;93974.31;5063783;28;20201;-68
2022/06/15 04:15:09;;;;;;;11.33;7.00;;;;;;;34.49;21.52;93983.19;5055566;28;20201;-68
2022/06/15 04:17:57;;;;;;;10.57;7.33;;;;;;;34.38;21.87;93981.22;5056744;28;20196;-67
2022/06/15 04:21:01;;;;;;;8.60;6.33;;;;;;;34.44;21.72;93986.94;5059159;28;20208;-67
2022/06/15 04:23:45;;;;;;;9.20;5.97;;;;;;;34.65;21.63;93987.97;5052309;28;20321;-68
2022/06/15 04:26:30;;;;;;;9.57;5.97;;;;;;;34.92;21.41;93996.22;5048090;28;20451;-68
2022/06/15 04:29:17;;;;;;;8.30;5.30;;;;;;;35.07;21.23;93994.44;5051426;28;20198;-68
2022/06/15 04:32:02;;;;;;;8.73;5.83;;;;;;;35.18;21.39;93998.59;5053756;28;20209;-68
2022/06/15 04:34:48;;;;;;;6.17;5.23;;;;;;;35.46;21.23;93998.00;5027916;28;20217;-68
2022/06/15 04:37:32;;;;;;;8.93;4.73;;;;;;;35.63;21.23;93996.13;5052756;28;20198;-68
2022/06/15 04:40:24;;;;;;;6.80;5.23;;;;;;;35.75;21.16;94003.19;5057916;28;20295;-68
2022/06/15 04:43:09;;;;;;;7.97;4.60;;;;;;;35.90;21.32;94001.38;5053641;28;20303;-68
2022/06/15 04:45:52;;;;;;;6.47;4.50;;;;;;;36.06;21.38;94000.97;5049115;28;20208;-68
2022/06/15 04:48:44;;;;;;;9.47;4.57;;;;;;;36.23;21.22;94013.72;5053663;28;20232;-68
2022/06/15 04:51:29;;;;;;;7.70;4.53;;;;;;;36.38;21.09;94011.88;5052546;28;20205;-68
2022/06/15 04:54:14;;;;;;;4.83;3.93;;;;;;;36.62;21.01;94009.78;5047984;28;20276;-69
2022/06/15 04:57:02;;;;;;;4.53;4.13;;;;;;;36.96;20.80;94003.06;5079320;28;20636;-69
2022/06/15 04:59:46;;;;;;;6.90;4.33;;;;;;;37.26;20.60;94001.47;5066376;28;20263;-68
2022/06/15 05:02:34;;;;;;;7.63;4.30;;;;;;;37.39;20.67;93996.00;5058202;28;20200;-68
2022/06/15 05:05:19;;;;;;;9.17;3.87;;;;;;;37.50;20.50;94000.03;5050614;28;20213;-68
2022/06/15 05:08:05;;;;;;;6.63;3.73;;;;;;;37.76;20.81;93999.25;5056213;28;20806;-69
2022/06/15 05:10:49;;;;;;;5.37;3.70;;;;;;;37.85;20.81;93997.50;5051521;28;20201;-69
2022/06/15 05:13:34;;;;;;;6.17;3.87;;;;;;;37.89;20.56;93997.38;5063428;28;20209;-68
2022/06/15 05:16:21;;;;;;;9.37;3.87;;;;;;;38.14;20.68;94008.31;5062840;28;20669;-68
2022/06/15 05:19:06;;;;;;;8.60;4.10;;;;;;;38.16;20.82;94008.25;5064020;28;20239;-68
2022/06/15 05:21:52;;;;;;;7.33;4.53;;;;;;;38.58;20.38;94017.84;5050652;28;20244;-69
2022/06/15 05:24:38;;;;;;;6.00;3.77;;;;;;;38.67;20.47;94013.13;5064120;28;20565;-68
2022/06/15 05:27:25;;;;;;;8.93;3.97;;;;;;;38.03;21.18;94011.56;5057597;28;20344;-69
2022/06/15 05:30:13;;;;;;;9.20;3.37;;;;;;;38.67;20.32;94019.72;5055596;28;20277;-69
2022/06/15 05:32:58;;;;;;;18.77;3.93;;;;;;;39.03;20.13;94011.16;5060182;28;20209;-69
2022/06/15 05:35:42;;;;;;;6.23;3.77;;;;;;;39.33;20.08;94004.16;5051375;28;20646;-69
2022/06/15 05:38:27;;;;;;;6.87;3.43;;;;;;;39.30;19.88;94007.97;5050904;28;20256;-69
2022/06/15 05:41:11;;;;;;;5.90;3.83;;;;;;;39.18;20.16;94006.19;5059477;28;20205;-70
2022/06/15 05:44:03;;;;;;;8.50;4.30;;;;;;;39.19;20.05;94010.56;5046221;28;22048;-70
2022/06/15 05:46:56;;;;;;;6.00;3.70;;;;;;;39.09;19.77;94002.84;5064732;28;20267;-70
2022/06/15 05:49:46;;;;;;;7.20;3.50;;;;;;;38.93;20.05;94009.31;5047895;28;20205;-69
2022/06/15 05:52:33;;;;;;;5.13;3.47;;;;;;;38.82;20.27;94005.97;5049785;28;20205;-70
2022/06/15 05:55:18;;;;;;;4.00;3.07;;;;;;;38.82;20.31;94014.75;5054610;28;20216;-69
2022/06/15 05:58:03;;;;;;;4.60;3.70;;;;;;;39.02;20.11;94012.66;5057100;28;20332;-69
2022/06/15 06:00:47;;;;;;;6.57;3.60;;;;;;;39.26;20.23;94008.13;5052548;28;20738;-70
2022/06/15 06:03:31;;;;;;;5.63;3.67;;;;;;;39.32;20.48;94005.66;5052785;28;20217;-70
2022/06/15 06:06:15;;;;;;;7.30;3.30;;;;;;;39.56;19.91;94001.84;5065671;28;20201;-70
2022/06/15 06:08:59;;;;;;;6.10;2.77;;;;;;;39.33;20.01;94009.31;5052351;28;20201;-70
2022/06/15 06:11:44;;;;;;;5.03;2.93;;;;;;;39.50;19.93;94005.00;5054462;28;20740;-69
2022/06/15 06:14:27;;;;;;;5.03;2.80;;;;;;;39.64;19.86;94010.31;5058868;28;20204;-69
2022/06/15 06:17:12;;;;;;;5.37;2.60;;;;;;;39.95;19.62;94015.03;5057328;28;20713;-70
2022/06/15 06:19:56;;;;;;;5.30;2.57;;;;;;;38.96;20.26;94012.88;5061383;28;20244;-70
2022/06/15 06:22:40;;;;;;;3.70;2.77;;;;;;;39.43;19.77;94011.91;5060841;28;20201;-70
2022/06/15 06:25:24;;;;;;;4.27;2.40;;;;;;;39.70;19.74;94020.38;5059025;28;20236;-70
2022/06/15 06:28:23;;;;;;;5.97;2.47;;;;;;;39.74;19.61;94020.25;5048933;28;20222;-70
2022/06/15 06:31:10;;;;;;;2.80;2.30;;;;;;;39.69;19.58;94013.81;5053117;28;20635;-71
2022/06/15 06:33:54;;;;;;;4.27;2.50;;;;;;;39.39;19.95;94020.84;5061266;28;20217;-70
2022/06/15 06:36:44;;;;;;;4.97;2.97;;;;;;;39.68;19.82;94014.63;5050221;28;20577;-70
2022/06/15 06:39:30;;;;;;;7.50;2.30;;;;;;;39.97;19.61;94026.69;5058510;28;20244;-70
2022/06/15 06:42:14;;;;;;;2.67;2.20;;;;;;;38.38;20.52;94025.09;5053005;28;20213;-69
2022/06/15 06:45:02;;;;;;;3.87;2.20;;;;;;;38.41;20.67;94023.50;5052090;28;20339;-70
2022/06/15 06:47:46;;;;;;;6.40;2.40;;;;;;;38.96;19.94;94027.53;5055473;28;20264;-69
2022/06/15 06:50:30;;;;;;;4.43;2.40;;;;;;;37.67;20.45;94024.38;5057905;28;20729;-69
2022/06/15 06:53:14;;;;;;;5.30;2.57;;;;;;;38.22;20.70;94019.75;5050109;28;20263;-69
2022/06/15 06:56:08;;;;;;;3.90;2.30;;;;;;;39.20;19.55;94018.56;5057154;28;20289;-69
2022/06/15 06:58:52;;;;;;;3.93;2.20;;;;;;;40.53;18.68;94034.72;5056796;28;20201;-69
2022/06/15 07:01:39;;;;;;;5.60;2.60;;;;;;;40.54;18.83;94031.00;5047639;28;20237;-69
2022/06/15 07:04:23;;;;;;;2.65;2.10;;;;;;;40.87;18.72;94036.22;5053653;28;20280;-69
2022/06/15 07:07:06;;;;;;;4.40;1.88;;;;;;;41.31;18.21;94032.84;5058212;28;20286;-69
2022/06/15 07:09:50;;;;;;;3.80;1.70;;;;;;;41.11;18.25;94034.44;5053296;28;20270;-69
2022/06/15 07:12:36;;;;;;;4.25;2.17;;;;;;;41.57;17.47;94040.50;5057104;28;20245;-68
2022/06/15 07:15:20;;;;;;;4.15;2.25;;;;;;;41.02;18.12;94033.38;5052490;28;20197;-69
2022/06/15 07:18:05;;;;;;;3.28;1.85;;;;;;;42.06;17.64;94044.13;5054038;28;20571;-69
2022/06/15 07:20:49;;;;;;;3.10;1.80;;;;;;;41.45;18.40;94043.97;5063558;28;20212;-69
2022/06/15 07:23:33;;;;;;;4.93;2.20;;;;;;;40.52;19.41;94045.03;5055703;28;20210;-69
2022/06/15 07:26:42;;;;;;;3.35;2.03;;;;;;;40.84;19.60;94040.75;5052691;28;20278;-69
2022/06/15 07:29:26;;;;;;;6.05;1.98;;;;;;;42.27;18.42;94038.69;5058418;28;20290;-69
2022/06/15 07:32:10;;;;;;;3.10;1.70;;;;;;;42.68;18.24;94049.91;5052236;28;20200;-69
2022/06/15 07:34:54;;;;;;;5.75;2.20;;;;;;;43.26;17.43;94045.53;5053004;28;20209;-69
2022/06/15 07:37:39;;;;;;;4.00;1.75;;;;;;;43.52;17.44;94049.31;5060732;28;20593;-70
2022/06/15 07:40:24;;;;;;;3.67;1.85;;;;;;;44.71;16.00;94044.94;5061474;28;20201;-69
2022/06/15 07:43:08;;;;;;;4.40;1.70;;;;;;;45.22;15.82;94047.88;5052099;28;20264;-70
2022/06/15 07:45:52;;;;;;;5.40;2.03;;;;;;;46.24;15.21;94045.97;5060976;28;20263;-70
2022/06/15 07:51:50;;;;;;;2.40;1.48;;;;;;;45.29;15.48;94043.72;5058500;28;20208;-69
2022/06/15 07:54:34;;;;;;;2.92;1.65;;;;;;;47.65;13.74;94056.53;5058342;28;20686;-70
2022/06/15 07:57:18;;;;;;;2.97;1.80;;;;;;;49.25;12.48;94062.00;5053985;28;20282;-70
2022/06/15 08:00:08;;;;;;;2.58;1.40;;;;;;;50.07;11.46;94057.06;5057277;28;20256;-67
2022/06/15 08:02:58;;;;;;;3.03;1.75;;;;;;;49.68;11.61;94051.19;5057697;28;20298;-68
2022/06/15 08:05:45;;;;;;;4.88;1.88;;;;;;;48.91;12.09;94057.06;5054724;28;20621;-68
2022/06/15 08:08:30;;;;;;;3.22;1.70;;;;;;;47.24;13.17;94055.63;5061689;28;20225;-68
2022/06/15 08:11:15;;;;;;;3.63;1.50;;;;;;;47.83;12.44;94051.56;5057579;28;20689;-68
2022/06/15 08:13:59;;;;;;;4.53;1.70;;;;;;;47.26;12.81;94058.47;5051653;28;20694;-68
2022/06/15 08:16:43;;;;;;;4.93;1.60;;;;;;;49.78;11.33;94064.59;5042494;28;20198;-71
2022/06/15 08:19:30;;;;;;;3.45;1.65;;;;;;;50.79;10.85;94065.38;5061621;28;20201;-69
2022/06/15 08:22:15;;;;;;;2.13;1.40;;;;;;;51.13;10.46;94061.78;5050929;28;20323;-69
2022/06/15 08:25:01;;;;;;;2.95;1.65;;;;;;;48.60;11.66;94051.94;5056330;28;20205;-69
2022/06/15 08:27:46;;;;;;;3.60;1.50;;;;;;;51.07;10.63;94056.34;5051287;28;20324;-69
2022/06/15 08:30:31;;;;;;;2.65;1.70;;;;;;;51.45;10.12;94051.66;5058466;28;20201;-69
2022/06/15 08:33:15;;;;;;;2.13;1.40;;;;;;;50.63;11.54;94054.06;5056089;28;20271;-69
2022/06/15 08:36:00;;;;;;;4.57;1.85;;;;;;;49.97;12.06;94054.91;5059597;28;20672;-69
2022/06/15 08:38:44;;;;;;;2.38;1.58;;;;;;;50.78;11.50;94052.03;5056486;28;20235;-69
2022/06/15 08:41:38;;;;;;;3.45;2.00;;;;;;;51.14;11.27;94051.28;5056104;28;20288;-68
2022/06/15 08:44:49;;;;;;;2.22;1.83;;;;;;;52.25;10.81;94061.88;5042885;28;20236;-69
2022/06/15 08:48:02;;;;;;;6.70;1.90;;;;;;;50.19;11.91;94056.09;5047457;28;20722;-68
2022/06/15 08:50:58;;;;;;;3.53;1.73;;;;;;;52.51;10.53;94064.81;5047426;28;20290;-69
2022/06/15 08:54:05;;;;;;;2.35;1.50;;;;;;;50.57;12.43;94058.97;5061802;28;20259;-69
2022/06/15 08:57:19;;;;;;;3.63;1.52;;;;;;;49.79;11.95;94066.72;5059681;28;20197;-68
2022/06/15 09:00:26;;;;;;;4.47;1.92;;;;;;;51.70;11.01;94069.63;5062212;28;20740;-68
2022/06/15 09:03:38;;;;;;;4.20;1.90;;;;;;;52.24;10.56;94072.44;5057114;28;20221;-68
2022/06/15 09:06:28;;;;;;;3.92;1.60;;;;;;;50.80;11.19;94069.75;5057669;28;20206;-69
2022/06/15 09:09:50;;;;;;;2.95;1.80;;;;;;;51.49;10.75;94069.28;5059198;28;20193;-68
2022/06/15 09:12:49;;;;;;;4.55;1.77;;;;;;;51.96;10.70;94069.66;5030704;28;20205;-69
2022/06/15 09:15:33;;;;;;;3.95;1.70;;;;;;;52.35;10.47;94069.94;5050470;28;20850;-69
2022/06/15 09:18:27;;;;;;;2.20;1.30;;;;;;;48.81;11.48;94072.72;5051309;28;20209;-68
2022/06/15 09:21:24;;;;;;;4.15;1.38;;;;;;;51.30;10.46;94067.13;5059023;28;20682;-69
2022/06/15 09:24:11;;;;;;;3.58;2.30;;;;;;;50.71;10.47;94068.31;5054526;28;20204;-69
2022/06/15 09:27:01;;;;;;;3.17;1.73;;;;;;;50.34;11.06;94070.59;5050508;28;20291;-70
2022/06/15 09:29:52;;;;;;;2.95;1.88;;;;;;;50.25;11.35;94064.56;5046648;28;20283;-69
2022/06/15 09:33:09;;;;;;;3.53;1.67;;;;;;;49.23;12.01;94071.78;5053301;28;20262;-69
2022/06/15 09:36:02;;;;;;;4.65;2.00;;;;;;;52.57;10.20;94076.25;5053376;28;20266;-68
2022/06/15 09:38:46;;;;;;;5.50;2.08;;;;;;;52.87;10.35;94073.50;5054328;28;20866;-68
2022/06/15 09:41:36;;;;;;;4.18;2.10;;;;;;;50.90;10.98;94068.25;5059829;28;20214;-70
2022/06/15 09:44:40;;;;;;;4.93;1.80;;;;;;;49.06;12.43;94061.94;5056433;28;20264;-70
2022/06/15 09:47:35;;;;;;;3.22;1.80;;;;;;;51.26;10.75;94071.16;5061146;28;20334;-70
2022/06/15 09:50:43;;;;;;;2.15;1.52;;;;;;;49.88;11.69;94077.97;5053847;28;20197;-70
2022/06/15 09:53:48;;;;;;;3.53;1.88;;;;;;;50.20;11.82;94075.41;5052422;28;20248;-70
2022/06/15 09:56:33;;;;;;;2.45;1.70;;;;;;;51.42;10.59;94071.38;5048784;28;20693;-69
2022/06/15 09:59:19;;;;;;;4.43;1.95;;;;;;;50.55;11.27;94068.09;5060264;28;20327;-72
2022/06/15 10:02:14;;;;;;;2.97;1.60;;;;;;;50.72;11.21;94070.44;5056320;28;20251;-69
2022/06/15 10:05:04;;;;;;;4.15;1.95;;;;;;;52.01;11.04;94075.97;5053403;28;20260;-69
2022/06/15 10:07:50;;;;;;;6.68;2.17;;;;;;;51.94;10.73;94069.81;5061850;28;20252;-68
2022/06/15 10:10:48;;;;;;;3.10;1.85;;;;;;;51.57;10.44;94068.59;5060913;28;20209;-69
2022/06/15 10:13:37;;;;;;;4.30;2.05;;;;;;;51.74;10.48;94069.28;5056969;28;20201;-70
2022/06/15 10:16:31;;;;;;;3.33;1.80;;;;;;;52.03;10.51;94073.53;5056385;28;20205;-68
2022/06/15 10:19:15;;;;;;;2.63;1.80;;;;;;;52.03;10.72;94078.78;5061189;28;20217;-70
2022/06/15 10:22:08;;;;;;;5.25;2.17;;;;;;;50.88;11.09;94066.13;5056317;28;20193;-69
2022/06/15 10:24:55;;;;;;;4.55;2.10;;;;;;;50.69;11.30;94060.22;5047553;28;20205;-69
2022/06/15 10:27:40;;;;;;;2.17;1.90;;;;;;;53.81;10.14;94079.81;5055625;28;20229;-69
2022/06/15 10:30:24;;;;;;;3.25;1.70;;;;;;;51.96;10.67;94075.63;5052886;28;20205;-69
2022/06/15 10:33:19;;;;;;;2.00;1.75;;;;;;;51.12;11.12;94078.31;5053681;28;20280;-69
2022/06/15 10:36:19;;;;;;;6.75;2.17;;;;;;;52.77;10.70;94077.41;5047115;28;20221;-69
2022/06/15 10:39:16;;;;;;;1.58;1.48;;;;;;;53.70;10.36;94077.75;5051680;28;20682;-69
2022/06/15 10:42:07;;;;;;;4.57;1.75;;;;;;;54.47;10.13;94076.41;5051793;28;20201;-69
2022/06/15 10:45:19;;;;;;;5.68;1.90;;;;;;;53.17;10.16;94070.00;5051353;28;20205;-69
2022/06/15 10:48:17;;;;;;;3.90;1.80;;;;;;;52.48;10.58;94075.56;5053693;28;20225;-69
2022/06/15 10:51:13;;;;;;;2.88;2.15;;;;;;;53.66;9.44;94078.16;5053645;28;20189;-69
2022/06/15 10:54:16;;;;;;;3.08;1.90;;;;;;;52.27;10.54;94070.69;5045313;28;20206;-68
2022/06/15 11:03:31;;;;;;;4.45;1.83;;;;;;;53.25;10.16;94074.53;5054544;28;20217;-69
2022/06/15 11:06:15;;;;;;;5.20;1.83;;;;;;;54.28;9.05;94067.75;5053862;28;20278;-69
2022/06/15 11:08:59;;;;;;;5.47;2.00;;;;;;;55.29;9.08;94074.34;5057223;28;20624;-70
2022/06/15 11:11:43;;;;;;;1.98;1.65;;;;;;;55.69;8.91;94070.22;5054587;28;20193;-69
2022/06/15 11:14:34;;;;;;;2.17;1.75;;;;;;;54.50;9.21;94067.19;5054359;28;20633;-69
2022/06/15 11:20:47;;;;;;;3.03;1.70;;;;;;;53.53;9.94;94059.91;5054700;28;20267;-71
2022/06/15 11:23:37;;;;;;;4.65;1.67;;;;;;;54.67;9.22;94067.00;5044674;28;20617;-69
2022/06/15 11:26:52;;;;;;;3.80;1.67;;;;;;;55.37;8.72;94073.53;5067646;28;20614;-69
2022/06/15 11:29:39;;;;;;;3.20;1.77;;;;;;;55.36;8.80;94072.16;5063323;28;20324;-69
2022/06/15 11:32:38;;;;;;;3.08;1.80;;;;;;;54.99;9.08;94069.78;5063612;28;20243;-69
2022/06/15 11:35:41;;;;;;;4.65;2.00;;;;;;;56.18;8.16;94065.84;5058605;28;20213;-70
2022/06/15 11:38:46;;;;;;;2.63;1.70;;;;;;;54.77;9.16;94060.69;5044888;28;20204;-70
2022/06/15 11:41:44;;;;;;;3.45;1.77;;;;;;;56.15;8.60;94063.97;5057501;28;20280;-70
2022/06/15 11:44:34;;;;;;;3.33;1.88;;;;;;;56.11;8.81;94061.41;5045380;28;20698;-70
2022/06/15 11:47:44;;;;;;;4.70;1.80;;;;;;;60.39;6.42;94077.63;5058152;28;20590;-70
2022/06/15 11:50:39;;;;;;;4.95;1.63;;;;;;;57.78;7.54;94066.63;5059075;28;20201;-73
2022/06/15 11:53:55;;;;;;;3.60;1.85;;;;;;;56.30;8.19;94058.56;5053480;28;20721;-70
2022/06/15 11:57:04;;;;;;;2.58;1.95;;;;;;;58.44;6.79;94060.00;5049784;28;20694;-71
2022/06/15 12:00:16;;;;;;;5.10;1.80;;;;;;;57.51;8.47;94050.78;5069852;28;20196;-70
2022/06/15 12:03:19;;;;;;;2.10;1.73;;;;;;;58.05;7.51;94067.38;5056739;28;20286;-70
2022/06/15 12:06:12;;;;;;;6.57;2.08;;;;;;;59.39;6.29;94060.97;5049914;28;20191;-70
2022/06/15 12:09:17;;;;;;;3.88;1.70;;;;;;;62.14;5.46;94063.13;5053050;28;20239;-71
2022/06/15 12:15:34;;;;;;;2.08;1.63;;;;;;;59.30;6.66;94060.56;5049670;28;20713;-71
2022/06/15 12:18:23;;;;;;;4.00;1.52;;;;;;;59.03;7.23;94059.94;5052881;28;20215;-71
2022/06/15 12:21:22;;;;;;;2.78;1.60;;;;;;;59.50;6.60;94052.09;5057985;28;20256;-71
2022/06/15 12:24:21;;;;;;;4.85;1.88;;;;;;;62.05;5.33;94065.78;5053226;28;20248;-71
2022/06/15 12:27:31;;;;;;;4.80;1.58;;;;;;;60.94;6.34;94062.47;5052150;28;20593;-71
2022/06/15 12:30:22;;;;;;;3.85;1.45;;;;;;;60.16;6.09;94057.81;5047460;28;20674;-71
2022/06/15 12:33:33;;;;;;;3.53;1.60;;;;;;;60.59;6.21;94053.97;5041771;28;20197;-71
2022/06/15 12:36:50;;;;;;;3.65;1.67;;;;;;;59.64;6.43;94059.47;5057287;28;20278;-72
2022/06/15 12:39:55;;;;;;;4.30;1.75;;;;;;;59.95;6.29;94046.75;5046507;28;20209;-73
2022/06/15 12:42:45;;;;;;;3.63;1.75;;;;;;;61.88;6.04;94056.72;5046084;28;20216;-72
2022/06/15 12:45:34;;;;;;;5.50;1.60;;;;;;;59.53;5.99;94044.84;5051439;28;20717;-72
2022/06/15 12:48:25;;;;;;;1.83;1.60;;;;;;;59.89;6.83;94039.81;5058974;28;20237;-76
2022/06/15 12:51:12;;;;;;;2.40;1.55;;;;;;;56.58;7.52;94036.09;5054842;28;20232;-78
2022/06/15 12:54:17;;;;;;;4.20;1.48;;;;;;;59.92;6.11;94039.56;5064726;28;20201;-76
2022/06/15 12:57:16;;;;;;;3.30;1.42;;;;;;;57.79;6.42;94046.22;5048968;28;20193;-75
2022/06/15 13:00:27;;;;;;;3.08;1.65;;;;;;;62.88;4.43;94042.72;5047759;28;20236;-74
2022/06/15 13:03:49;;;;;;;8.75;1.92;;;;;;;63.97;4.30;94056.88;5050466;28;20344;-74
2022/06/15 13:06:36;;;;;;;3.20;1.63;;;;;;;60.36;5.66;94042.50;5055918;28;20216;-76
2022/06/15 13:09:22;;;;;;;1.92;1.23;;;;;;;59.45;4.82;94039.78;5050688;28;20287;-79
2022/06/15 13:12:08;;;;;;;4.05;1.50;;;;;;;64.56;3.63;94051.78;5059170;28;20192;-76
2022/06/15 13:14:58;;;;;;;2.35;1.35;;;;;;;65.08;3.60;94062.59;5038310;28;20201;-79
2022/06/15 13:18:11;;;;;;;2.08;1.50;;;;;;;62.22;4.68;94040.81;5050560;28;20240;-78
2022/06/15 13:20:58;;;;;;;2.45;1.42;;;;;;;55.58;7.20;94030.75;5054989;28;20196;-77
2022/06/15 13:23:47;;;;;;;3.45;1.25;;;;;;;57.13;6.54;94019.50;5054254;28;20960;-74
2022/06/15 13:26:31;;;;;;;3.28;1.75;;;;;;;60.29;4.99;94033.47;5058748;28;20272;-75
2022/06/15 13:29:17;;;;;;;5.18;1.60;;;;;;;62.47;4.63;94041.31;5050570;28;20209;-79
2022/06/15 13:32:05;;;;;;;3.70;1.35;;;;;;;62.31;4.25;94036.69;5055138;28;20247;-79
2022/06/15 13:34:49;;;;;;;3.05;1.30;;;;;;;62.79;3.93;94036.31;5059293;28;20677;-78
2022/06/15 13:37:35;;;;;;;1.70;1.25;;;;;;;62.15;5.08;94028.06;5057980;28;20224;-78
2022/06/15 13:40:20;;;;;;;2.95;1.30;;;;;;;62.33;4.13;94030.34;5056848;28;20267;-77
2022/06/15 13:43:04;;;;;;;3.85;1.20;;;;;;;60.70;4.77;94022.41;5056864;28;20198;-79